sensor_id;sensor_type;location;lat;lon;timestamp;temperature;humidity
14995;DHT22;7593;49.006;8.372;2024-02-15T00:00:58;11.50;99.90
14995;DHT22;7593;49.006;8.372;2024-02-15T00:03:25;11.50;99.90
14995;DHT22;7593;49.006;8.372;2024-02-15T00:05:53;11.50;99.90
14995;DHT22;7593;49.006;8.372;2024-02-15T00:08:20;11.40;99.90
14995;DHT22;7593;49.006;8.372;2024-02-15T00:10:47;11.40;99.90
14995;DHT22;7593;49.006;8.372;2024-02-15T00:13:14;11.40;99.90
14995;DHT22;7593;49.006;8.372;2024-02-15T00:15:41;11.40;99.90
14995;DHT22;7593;49.006;8.372;2024-02-15T00:18:08;11.40;99.90
14995;DHT22;7593;49.006;8.372;2024-02-15T00:20:34;11.50;99.90
14995;DHT22;7593;49.006;8.372;2024-02-15T00:23:03;11.50;99.90
14995;DHT22;7593;49.006;8.372;2024-02-15T00:25:30;11.50;99.90
14995;DHT22;7593;49.006;8.372;2024-02-15T00:27:57;11.50;99.90
14995;DHT22;7593;49.006;8.372;2024-02-15T00:30:25;11.50;99.90
14995;DHT22;7593;49.006;8.372;2024-02-15T00:32:52;11.40;99.90
14995;DHT22;7593;49.006;8.372;2024-02-15T00:35:19;11.40;99.90
14995;DHT22;7593;49.006;8.372;2024-02-15T00:37:46;11.40;99.90
14995;DHT22;7593;49.006;8.372;2024-02-15T00:40:14;11.30;99.90
14995;DHT22;7593;49.006;8.372;2024-02-15T00:42:41;11.30;99.90
14995;DHT22;7593;49.006;8.372;2024-02-15T00:45:08;11.30;99.90
14995;DHT22;7593;49.006;8.372;2024-02-15T00:47:36;11.30;99.90
14995;DHT22;7593;49.006;8.372;2024-02-15T00:50:03;11.30;99.90
14995;DHT22;7593;49.006;8.372;2024-02-15T00:52:30;11.30;99.90
14995;DHT22;7593;49.006;8.372;2024-02-15T00:54:57;11.30;99.90
14995;DHT22;7593;49.006;8.372;2024-02-15T00:57:25;11.30;99.90
14995;DHT22;7593;49.006;8.372;2024-02-15T00:59:52;11.30;99.90
14995;DHT22;7593;49.006;8.372;2024-02-15T01:02:18;11.30;99.90
14995;DHT22;7593;49.006;8.372;2024-02-15T01:04:45;11.30;99.90
14995;DHT22;7593;49.006;8.372;2024-02-15T01:07:12;11.20;99.90
14995;DHT22;7593;49.006;8.372;2024-02-15T01:09:39;11.20;99.90
14995;DHT22;7593;49.006;8.372;2024-02-15T01:12:06;11.10;99.90
14995;DHT22;7593;49.006;8.372;2024-02-15T01:14:34;11.10;99.90
14995;DHT22;7593;49.006;8.372;2024-02-15T01:17:01;11.00;99.90
14995;DHT22;7593;49.006;8.372;2024-02-15T01:19:29;11.00;99.90
14995;DHT22;7593;49.006;8.372;2024-02-15T01:21:56;10.90;99.90
14995;DHT22;7593;49.006;8.372;2024-02-15T01:24:25;10.90;99.90
14995;DHT22;7593;49.006;8.372;2024-02-15T01:26:52;11.00;99.90
14995;DHT22;7593;49.006;8.372;2024-02-15T01:29:19;10.90;99.90
14995;DHT22;7593;49.006;8.372;2024-02-15T01:31:47;10.90;99.90
14995;DHT22;7593;49.006;8.372;2024-02-15T01:34:14;10.90;99.90
14995;DHT22;7593;49.006;8.372;2024-02-15T01:36:41;10.90;99.90
14995;DHT22;7593;49.006;8.372;2024-02-15T01:39:08;10.90;99.90
14995;DHT22;7593;49.006;8.372;2024-02-15T01:41:34;10.90;99.90
14995;DHT22;7593;49.006;8.372;2024-02-15T01:44:01;10.90;99.90
14995;DHT22;7593;49.006;8.372;2024-02-15T01:46:28;10.90;99.90
14995;DHT22;7593;49.006;8.372;2024-02-15T01:48:58;10.90;99.90
14995;DHT22;7593;49.006;8.372;2024-02-15T01:51:25;10.90;99.90
14995;DHT22;7593;49.006;8.372;2024-02-15T01:53:53;10.90;99.90
14995;DHT22;7593;49.006;8.372;2024-02-15T01:56:21;10.90;99.90
14995;DHT22;7593;49.006;8.372;2024-02-15T01:58:49;10.90;99.90
14995;DHT22;7593;49.006;8.372;2024-02-15T02:01:17;10.90;99.90
14995;DHT22;7593;49.006;8.372;2024-02-15T02:03:44;10.90;99.90
14995;DHT22;7593;49.006;8.372;2024-02-15T02:06:12;10.90;99.90
14995;DHT22;7593;49.006;8.372;2024-02-15T02:08:40;10.90;99.90
14995;DHT22;7593;49.006;8.372;2024-02-15T02:11:07;10.90;99.90
14995;DHT22;7593;49.006;8.372;2024-02-15T02:13:34;10.90;99.90
14995;DHT22;7593;49.006;8.372;2024-02-15T02:16:01;10.90;99.90
14995;DHT22;7593;49.006;8.372;2024-02-15T02:18:27;10.90;99.90
14995;DHT22;7593;49.006;8.372;2024-02-15T02:20:54;10.90;99.90
14995;DHT22;7593;49.006;8.372;2024-02-15T02:23:26;10.90;99.90
14995;DHT22;7593;49.006;8.372;2024-02-15T02:25:54;10.90;99.90
14995;DHT22;7593;49.006;8.372;2024-02-15T02:28:21;10.80;99.90
14995;DHT22;7593;49.006;8.372;2024-02-15T02:30:48;10.90;99.90
14995;DHT22;7593;49.006;8.372;2024-02-15T02:33:15;10.90;99.90
14995;DHT22;7593;49.006;8.372;2024-02-15T02:35:44;10.90;99.90
14995;DHT22;7593;49.006;8.372;2024-02-15T02:38:12;10.90;99.90
14995;DHT22;7593;49.006;8.372;2024-02-15T02:40:40;10.80;99.90
14995;DHT22;7593;49.006;8.372;2024-02-15T02:43:08;10.90;99.90
14995;DHT22;7593;49.006;8.372;2024-02-15T02:45:35;10.90;99.90
14995;DHT22;7593;49.006;8.372;2024-02-15T02:48:02;10.90;99.90
14995;DHT22;7593;49.006;8.372;2024-02-15T02:50:29;10.90;99.90
14995;DHT22;7593;49.006;8.372;2024-02-15T02:52:55;10.90;99.90
14995;DHT22;7593;49.006;8.372;2024-02-15T02:55:22;10.90;99.90
14995;DHT22;7593;49.006;8.372;2024-02-15T02:57:49;10.90;99.90
14995;DHT22;7593;49.006;8.372;2024-02-15T03:00:18;10.90;99.90
14995;DHT22;7593;49.006;8.372;2024-02-15T03:02:46;10.90;99.90
14995;DHT22;7593;49.006;8.372;2024-02-15T03:05:13;10.90;99.90
14995;DHT22;7593;49.006;8.372;2024-02-15T03:07:40;10.90;99.90
14995;DHT22;7593;49.006;8.372;2024-02-15T03:10:09;10.90;99.90
14995;DHT22;7593;49.006;8.372;2024-02-15T03:12:40;10.80;99.90
14995;DHT22;7593;49.006;8.372;2024-02-15T03:15:13;10.90;99.90
14995;DHT22;7593;49.006;8.372;2024-02-15T03:17:42;10.90;99.90
14995;DHT22;7593;49.006;8.372;2024-02-15T03:20:10;10.90;99.90
14995;DHT22;7593;49.006;8.372;2024-02-15T03:22:38;10.90;99.90
14995;DHT22;7593;49.006;8.372;2024-02-15T03:25:06;10.80;99.90
14995;DHT22;7593;49.006;8.372;2024-02-15T03:27:33;10.80;99.90
14995;DHT22;7593;49.006;8.372;2024-02-15T03:30:00;10.80;99.90
14995;DHT22;7593;49.006;8.372;2024-02-15T03:32:27;10.80;99.90
14995;DHT22;7593;49.006;8.372;2024-02-15T03:34:55;10.80;99.90
14995;DHT22;7593;49.006;8.372;2024-02-15T03:37:22;10.80;99.90
14995;DHT22;7593;49.006;8.372;2024-02-15T03:39:49;10.80;99.90
14995;DHT22;7593;49.006;8.372;2024-02-15T03:42:16;10.80;99.90
14995;DHT22;7593;49.006;8.372;2024-02-15T03:44:42;10.80;99.90
14995;DHT22;7593;49.006;8.372;2024-02-15T03:47:09;10.80;99.90
14995;DHT22;7593;49.006;8.372;2024-02-15T03:49:39;10.80;99.90
14995;DHT22;7593;49.006;8.372;2024-02-15T03:52:08;10.80;99.90
14995;DHT22;7593;49.006;8.372;2024-02-15T03:54:36;10.80;99.90
14995;DHT22;7593;49.006;8.372;2024-02-15T03:57:03;10.80;99.90
14995;DHT22;7593;49.006;8.372;2024-02-15T03:59:31;10.80;99.90
14995;DHT22;7593;49.006;8.372;2024-02-15T04:02:00;10.80;99.90
14995;DHT22;7593;49.006;8.372;2024-02-15T04:04:28;10.80;99.90
14995;DHT22;7593;49.006;8.372;2024-02-15T04:06:55;10.80;99.90
14995;DHT22;7593;49.006;8.372;2024-02-15T04:09:23;10.80;99.90
14995;DHT22;7593;49.006;8.372;2024-02-15T04:11:50;10.80;99.90
14995;DHT22;7593;49.006;8.372;2024-02-15T04:14:18;10.80;99.90
14995;DHT22;7593;49.006;8.372;2024-02-15T04:16:45;10.80;99.90
14995;DHT22;7593;49.006;8.372;2024-02-15T04:19:12;10.80;99.90
14995;DHT22;7593;49.006;8.372;2024-02-15T04:21:39;10.70;99.90
14995;DHT22;7593;49.006;8.372;2024-02-15T04:24:06;10.80;99.90
14995;DHT22;7593;49.006;8.372;2024-02-15T04:26:34;10.70;99.90
14995;DHT22;7593;49.006;8.372;2024-02-15T04:29:02;10.70;99.90
14995;DHT22;7593;49.006;8.372;2024-02-15T04:31:29;10.70;99.90
14995;DHT22;7593;49.006;8.372;2024-02-15T04:33:58;10.70;99.90
14995;DHT22;7593;49.006;8.372;2024-02-15T04:36:24;10.70;99.90
14995;DHT22;7593;49.006;8.372;2024-02-15T04:38:52;10.70;99.90
14995;DHT22;7593;49.006;8.372;2024-02-15T04:41:19;10.70;99.90
14995;DHT22;7593;49.006;8.372;2024-02-15T04:43:50;10.70;99.90
14995;DHT22;7593;49.006;8.372;2024-02-15T04:46:16;10.70;99.90
14995;DHT22;7593;49.006;8.372;2024-02-15T04:48:46;10.70;99.90
14995;DHT22;7593;49.006;8.372;2024-02-15T04:51:15;10.70;99.90
14995;DHT22;7593;49.006;8.372;2024-02-15T04:53:42;10.70;99.90
14995;DHT22;7593;49.006;8.372;2024-02-15T04:56:08;10.60;99.90
14995;DHT22;7593;49.006;8.372;2024-02-15T04:58:39;10.70;99.90
14995;DHT22;7593;49.006;8.372;2024-02-15T05:01:13;10.70;99.90
14995;DHT22;7593;49.006;8.372;2024-02-15T05:03:40;10.70;99.90
14995;DHT22;7593;49.006;8.372;2024-02-15T05:06:07;10.70;99.90
14995;DHT22;7593;49.006;8.372;2024-02-15T05:08:34;10.70;99.90
14995;DHT22;7593;49.006;8.372;2024-02-15T05:11:02;10.60;99.90
14995;DHT22;7593;49.006;8.372;2024-02-15T05:13:30;10.60;99.90
14995;DHT22;7593;49.006;8.372;2024-02-15T05:15:58;10.70;99.90
14995;DHT22;7593;49.006;8.372;2024-02-15T05:18:26;10.70;99.90
14995;DHT22;7593;49.006;8.372;2024-02-15T05:20:53;10.60;99.90
14995;DHT22;7593;49.006;8.372;2024-02-15T05:23:19;10.70;99.90
14995;DHT22;7593;49.006;8.372;2024-02-15T05:25:47;10.70;99.90
14995;DHT22;7593;49.006;8.372;2024-02-15T05:28:13;10.70;99.90
14995;DHT22;7593;49.006;8.372;2024-02-15T05:30:40;10.70;99.90
14995;DHT22;7593;49.006;8.372;2024-02-15T05:33:07;10.70;99.90
14995;DHT22;7593;49.006;8.372;2024-02-15T05:35:37;10.70;99.90
14995;DHT22;7593;49.006;8.372;2024-02-15T05:38:05;10.70;99.90
14995;DHT22;7593;49.006;8.372;2024-02-15T05:40:32;10.60;99.90
14995;DHT22;7593;49.006;8.372;2024-02-15T05:42:59;10.60;99.90
14995;DHT22;7593;49.006;8.372;2024-02-15T05:45:29;10.60;99.90
14995;DHT22;7593;49.006;8.372;2024-02-15T05:47:58;10.60;99.90
14995;DHT22;7593;49.006;8.372;2024-02-15T05:50:25;10.60;99.90
14995;DHT22;7593;49.006;8.372;2024-02-15T05:52:56;10.60;99.90
14995;DHT22;7593;49.006;8.372;2024-02-15T05:55:24;10.60;99.90
14995;DHT22;7593;49.006;8.372;2024-02-15T05:57:52;10.60;99.90
14995;DHT22;7593;49.006;8.372;2024-02-15T06:00:19;10.50;99.90
14995;DHT22;7593;49.006;8.372;2024-02-15T06:02:46;10.50;99.90
14995;DHT22;7593;49.006;8.372;2024-02-15T06:05:14;10.50;99.90
14995;DHT22;7593;49.006;8.372;2024-02-15T06:07:43;10.50;99.90
14995;DHT22;7593;49.006;8.372;2024-02-15T06:10:11;10.50;99.90
14995;DHT22;7593;49.006;8.372;2024-02-15T06:12:39;10.50;99.90
14995;DHT22;7593;49.006;8.372;2024-02-15T06:15:06;10.50;99.90
14995;DHT22;7593;49.006;8.372;2024-02-15T06:17:40;10.50;99.90
14995;DHT22;7593;49.006;8.372;2024-02-15T06:20:11;10.50;99.90
14995;DHT22;7593;49.006;8.372;2024-02-15T06:22:39;10.50;99.90
14995;DHT22;7593;49.006;8.372;2024-02-15T06:25:06;10.50;99.90
14995;DHT22;7593;49.006;8.372;2024-02-15T06:27:34;10.50;99.90
14995;DHT22;7593;49.006;8.372;2024-02-15T06:30:07;10.50;99.90
14995;DHT22;7593;49.006;8.372;2024-02-15T06:32:51;10.50;99.90
14995;DHT22;7593;49.006;8.372;2024-02-15T06:35:35;10.50;99.90
14995;DHT22;7593;49.006;8.372;2024-02-15T06:38:20;10.50;99.90
14995;DHT22;7593;49.006;8.372;2024-02-15T06:41:04;10.40;99.90
14995;DHT22;7593;49.006;8.372;2024-02-15T06:43:32;10.40;99.90
14995;DHT22;7593;49.006;8.372;2024-02-15T06:46:00;10.40;99.90
14995;DHT22;7593;49.006;8.372;2024-02-15T06:48:27;10.30;99.90
14995;DHT22;7593;49.006;8.372;2024-02-15T06:50:53;10.30;99.90
14995;DHT22;7593;49.006;8.372;2024-02-15T06:53:20;10.30;99.90
14995;DHT22;7593;49.006;8.372;2024-02-15T06:55:47;10.30;99.90
14995;DHT22;7593;49.006;8.372;2024-02-15T06:58:14;10.20;99.90
14995;DHT22;7593;49.006;8.372;2024-02-15T07:00:43;10.20;99.90
14995;DHT22;7593;49.006;8.372;2024-02-15T07:03:10;10.20;99.90
14995;DHT22;7593;49.006;8.372;2024-02-15T07:05:37;10.20;99.90
14995;DHT22;7593;49.006;8.372;2024-02-15T07:08:05;10.30;99.90
14995;DHT22;7593;49.006;8.372;2024-02-15T07:10:32;10.30;99.90
14995;DHT22;7593;49.006;8.372;2024-02-15T07:12:59;10.30;99.90
14995;DHT22;7593;49.006;8.372;2024-02-15T07:15:26;10.40;99.90
14995;DHT22;7593;49.006;8.372;2024-02-15T07:17:54;10.40;99.90
14995;DHT22;7593;49.006;8.372;2024-02-15T07:20:21;10.40;99.90
14995;DHT22;7593;49.006;8.372;2024-02-15T07:22:48;10.50;99.90
14995;DHT22;7593;49.006;8.372;2024-02-15T07:25:15;10.50;99.90
14995;DHT22;7593;49.006;8.372;2024-02-15T07:27:42;10.60;99.90
14995;DHT22;7593;49.006;8.372;2024-02-15T07:30:09;10.60;99.90
14995;DHT22;7593;49.006;8.372;2024-02-15T07:32:37;10.70;99.90
14995;DHT22;7593;49.006;8.372;2024-02-15T07:35:05;10.70;99.90
14995;DHT22;7593;49.006;8.372;2024-02-15T07:37:33;10.70;99.90
14995;DHT22;7593;49.006;8.372;2024-02-15T07:40:00;10.80;99.90
14995;DHT22;7593;49.006;8.372;2024-02-15T07:42:29;10.80;99.90
14995;DHT22;7593;49.006;8.372;2024-02-15T07:44:56;10.90;99.90
14995;DHT22;7593;49.006;8.372;2024-02-15T07:47:23;10.90;99.90
14995;DHT22;7593;49.006;8.372;2024-02-15T07:49:50;10.90;99.90
14995;DHT22;7593;49.006;8.372;2024-02-15T07:52:18;11.00;99.90
14995;DHT22;7593;49.006;8.372;2024-02-15T07:54:45;11.00;99.90
14995;DHT22;7593;49.006;8.372;2024-02-15T07:57:12;11.00;99.90
14995;DHT22;7593;49.006;8.372;2024-02-15T07:59:39;11.10;99.90
14995;DHT22;7593;49.006;8.372;2024-02-15T08:02:07;11.10;99.90
14995;DHT22;7593;49.006;8.372;2024-02-15T08:04:34;11.10;99.90
14995;DHT22;7593;49.006;8.372;2024-02-15T08:07:06;11.10;99.90
14995;DHT22;7593;49.006;8.372;2024-02-15T08:09:37;11.20;99.90
14995;DHT22;7593;49.006;8.372;2024-02-15T08:12:04;11.20;99.90
14995;DHT22;7593;49.006;8.372;2024-02-15T08:14:31;11.20;99.90
14995;DHT22;7593;49.006;8.372;2024-02-15T08:16:58;11.30;99.90
14995;DHT22;7593;49.006;8.372;2024-02-15T08:19:24;11.40;99.90
14995;DHT22;7593;49.006;8.372;2024-02-15T08:21:54;11.50;99.90
14995;DHT22;7593;49.006;8.372;2024-02-15T08:24:21;11.50;99.90
14995;DHT22;7593;49.006;8.372;2024-02-15T08:26:50;11.60;99.90
14995;DHT22;7593;49.006;8.372;2024-02-15T08:29:18;11.70;99.90
14995;DHT22;7593;49.006;8.372;2024-02-15T08:31:45;11.70;99.90
14995;DHT22;7593;49.006;8.372;2024-02-15T08:34:12;11.70;99.90
14995;DHT22;7593;49.006;8.372;2024-02-15T08:36:40;11.80;99.90
14995;DHT22;7593;49.006;8.372;2024-02-15T08:39:07;11.90;99.90
14995;DHT22;7593;49.006;8.372;2024-02-15T08:41:37;11.90;99.90
14995;DHT22;7593;49.006;8.372;2024-02-15T08:44:06;12.00;99.90
14995;DHT22;7593;49.006;8.372;2024-02-15T08:46:37;12.10;99.90
14995;DHT22;7593;49.006;8.372;2024-02-15T08:49:04;12.30;99.90
14995;DHT22;7593;49.006;8.372;2024-02-15T08:51:31;12.40;99.90
14995;DHT22;7593;49.006;8.372;2024-02-15T08:53:58;12.70;99.90
14995;DHT22;7593;49.006;8.372;2024-02-15T08:56:25;13.10;99.90
14995;DHT22;7593;49.006;8.372;2024-02-15T08:58:52;13.50;99.90
14995;DHT22;7593;49.006;8.372;2024-02-15T09:01:20;13.90;99.90
14995;DHT22;7593;49.006;8.372;2024-02-15T09:03:48;14.30;99.90
14995;DHT22;7593;49.006;8.372;2024-02-15T09:06:15;14.80;99.90
14995;DHT22;7593;49.006;8.372;2024-02-15T09:08:41;15.20;99.90
14995;DHT22;7593;49.006;8.372;2024-02-15T09:11:08;15.40;99.90
14995;DHT22;7593;49.006;8.372;2024-02-15T09:13:37;15.50;99.90
14995;DHT22;7593;49.006;8.372;2024-02-15T09:16:04;15.70;99.90
14995;DHT22;7593;49.006;8.372;2024-02-15T09:18:33;16.00;99.90
14995;DHT22;7593;49.006;8.372;2024-02-15T09:21:00;16.20;99.90
14995;DHT22;7593;49.006;8.372;2024-02-15T09:23:26;16.20;99.90
14995;DHT22;7593;49.006;8.372;2024-02-15T09:25:53;16.50;99.90
14995;DHT22;7593;49.006;8.372;2024-02-15T09:28:20;16.70;99.90
14995;DHT22;7593;49.006;8.372;2024-02-15T09:30:48;17.00;99.90
14995;DHT22;7593;49.006;8.372;2024-02-15T09:33:17;17.20;99.90
14995;DHT22;7593;49.006;8.372;2024-02-15T09:35:46;17.20;99.90
14995;DHT22;7593;49.006;8.372;2024-02-15T09:38:13;17.30;99.90
14995;DHT22;7593;49.006;8.372;2024-02-15T09:40:42;17.20;99.90
14995;DHT22;7593;49.006;8.372;2024-02-15T09:43:10;17.20;99.90
14995;DHT22;7593;49.006;8.372;2024-02-15T09:45:38;17.40;99.90
14995;DHT22;7593;49.006;8.372;2024-02-15T09:48:06;17.60;99.90
14995;DHT22;7593;49.006;8.372;2024-02-15T09:50:35;17.80;99.90
14995;DHT22;7593;49.006;8.372;2024-02-15T09:53:04;17.90;99.90
14995;DHT22;7593;49.006;8.372;2024-02-15T09:55:34;18.00;99.90
14995;DHT22;7593;49.006;8.372;2024-02-15T09:58:01;18.00;99.90
14995;DHT22;7593;49.006;8.372;2024-02-15T10:00:30;18.10;99.90
14995;DHT22;7593;49.006;8.372;2024-02-15T10:02:59;18.20;99.90
14995;DHT22;7593;49.006;8.372;2024-02-15T10:05:26;18.20;99.90
14995;DHT22;7593;49.006;8.372;2024-02-15T10:07:54;18.20;99.90
14995;DHT22;7593;49.006;8.372;2024-02-15T10:10:23;18.10;99.90
14995;DHT22;7593;49.006;8.372;2024-02-15T10:12:52;18.20;99.90
14995;DHT22;7593;49.006;8.372;2024-02-15T10:15:30;18.20;99.90
14995;DHT22;7593;49.006;8.372;2024-02-15T10:17:58;18.20;99.90
14995;DHT22;7593;49.006;8.372;2024-02-15T10:20:25;18.30;99.90
14995;DHT22;7593;49.006;8.372;2024-02-15T10:22:53;18.30;99.90
14995;DHT22;7593;49.006;8.372;2024-02-15T10:25:22;18.30;99.90
14995;DHT22;7593;49.006;8.372;2024-02-15T10:27:48;18.20;99.90
14995;DHT22;7593;49.006;8.372;2024-02-15T10:30:16;18.00;99.90
14995;DHT22;7593;49.006;8.372;2024-02-15T10:32:43;17.90;99.90
14995;DHT22;7593;49.006;8.372;2024-02-15T10:35:12;17.90;99.90
14995;DHT22;7593;49.006;8.372;2024-02-15T10:37:46;18.00;99.90
14995;DHT22;7593;49.006;8.372;2024-02-15T10:40:17;18.20;99.90
14995;DHT22;7593;49.006;8.372;2024-02-15T10:42:47;18.20;99.90
14995;DHT22;7593;49.006;8.372;2024-02-15T10:45:15;18.20;99.90
14995;DHT22;7593;49.006;8.372;2024-02-15T10:47:44;18.40;99.90
14995;DHT22;7593;49.006;8.372;2024-02-15T10:50:13;18.40;99.90
14995;DHT22;7593;49.006;8.372;2024-02-15T10:52:48;18.40;99.90
14995;DHT22;7593;49.006;8.372;2024-02-15T10:55:25;18.40;99.90
14995;DHT22;7593;49.006;8.372;2024-02-15T10:57:58;18.50;99.90
14995;DHT22;7593;49.006;8.372;2024-02-15T11:00:30;18.60;99.90
14995;DHT22;7593;49.006;8.372;2024-02-15T11:03:01;18.50;99.90
14995;DHT22;7593;49.006;8.372;2024-02-15T11:05:32;18.10;99.90
14995;DHT22;7593;49.006;8.372;2024-02-15T11:08:00;17.90;99.90
14995;DHT22;7593;49.006;8.372;2024-02-15T11:10:30;17.90;99.90
14995;DHT22;7593;49.006;8.372;2024-02-15T11:12:59;18.00;99.90
14995;DHT22;7593;49.006;8.372;2024-02-15T11:15:40;17.90;99.90
14995;DHT22;7593;49.006;8.372;2024-02-15T11:18:07;17.90;99.90
14995;DHT22;7593;49.006;8.372;2024-02-15T11:20:47;18.00;99.90
14995;DHT22;7593;49.006;8.372;2024-02-15T11:23:25;18.10;99.90
14995;DHT22;7593;49.006;8.372;2024-02-15T11:25:53;18.20;99.90
14995;DHT22;7593;49.006;8.372;2024-02-15T11:28:43;18.20;99.90
14995;DHT22;7593;49.006;8.372;2024-02-15T11:34:42;18.20;99.90
14995;DHT22;7593;49.006;8.372;2024-02-15T11:37:49;18.20;99.90
14995;DHT22;7593;49.006;8.372;2024-02-15T11:40:19;18.20;99.90
14995;DHT22;7593;49.006;8.372;2024-02-15T11:42:48;18.20;99.90
14995;DHT22;7593;49.006;8.372;2024-02-15T11:45:17;18.30;99.90
14995;DHT22;7593;49.006;8.372;2024-02-15T11:47:50;18.50;99.90
14995;DHT22;7593;49.006;8.372;2024-02-15T11:50:17;18.60;99.90
14995;DHT22;7593;49.006;8.372;2024-02-15T11:52:46;18.50;99.90
14995;DHT22;7593;49.006;8.372;2024-02-15T11:55:17;18.50;99.90
14995;DHT22;7593;49.006;8.372;2024-02-15T11:57:53;18.60;99.90
14995;DHT22;7593;49.006;8.372;2024-02-15T12:00:27;18.80;99.90
14995;DHT22;7593;49.006;8.372;2024-02-15T12:03:14;18.90;99.90
14995;DHT22;7593;49.006;8.372;2024-02-15T12:05:54;19.10;99.90
14995;DHT22;7593;49.006;8.372;2024-02-15T12:08:39;19.40;99.90
14995;DHT22;7593;49.006;8.372;2024-02-15T12:11:24;19.60;99.90
14995;DHT22;7593;49.006;8.372;2024-02-15T12:14:12;19.60;99.90
14995;DHT22;7593;49.006;8.372;2024-02-15T12:17:02;19.70;99.50
14995;DHT22;7593;49.006;8.372;2024-02-15T12:19:48;19.50;99.50
14995;DHT22;7593;49.006;8.372;2024-02-15T12:22:16;19.50;99.60
14995;DHT22;7593;49.006;8.372;2024-02-15T12:24:43;19.40;99.90
14995;DHT22;7593;49.006;8.372;2024-02-15T12:27:10;19.30;99.90
14995;DHT22;7593;49.006;8.372;2024-02-15T12:29:37;19.30;99.90
14995;DHT22;7593;49.006;8.372;2024-02-15T12:32:05;19.30;99.90
14995;DHT22;7593;49.006;8.372;2024-02-15T12:34:32;19.40;99.90
14995;DHT22;7593;49.006;8.372;2024-02-15T12:37:05;19.50;99.90
14995;DHT22;7593;49.006;8.372;2024-02-15T12:39:34;19.50;99.90
14995;DHT22;7593;49.006;8.372;2024-02-15T12:42:02;19.40;99.90
14995;DHT22;7593;49.006;8.372;2024-02-15T12:44:29;19.40;99.90
14995;DHT22;7593;49.006;8.372;2024-02-15T12:46:58;19.30;99.80
14995;DHT22;7593;49.006;8.372;2024-02-15T12:49:30;19.30;99.90
14995;DHT22;7593;49.006;8.372;2024-02-15T12:55:12;19.20;99.90
14995;DHT22;7593;49.006;8.372;2024-02-15T12:57:39;19.20;99.90
14995;DHT22;7593;49.006;8.372;2024-02-15T13:00:08;19.10;99.90
14995;DHT22;7593;49.006;8.372;2024-02-15T13:02:39;19.00;99.90
14995;DHT22;7593;49.006;8.372;2024-02-15T13:05:08;19.10;99.90
14995;DHT22;7593;49.006;8.372;2024-02-15T13:07:36;19.10;99.90
14995;DHT22;7593;49.006;8.372;2024-02-15T13:10:03;19.10;99.90
14995;DHT22;7593;49.006;8.372;2024-02-15T13:12:32;19.00;99.90
14995;DHT22;7593;49.006;8.372;2024-02-15T13:15:02;19.00;99.90
14995;DHT22;7593;49.006;8.372;2024-02-15T13:17:30;19.00;99.90
14995;DHT22;7593;49.006;8.372;2024-02-15T13:19:57;18.90;99.90
14995;DHT22;7593;49.006;8.372;2024-02-15T13:22:31;18.70;99.90
14995;DHT22;7593;49.006;8.372;2024-02-15T13:24:58;18.70;99.90
14995;DHT22;7593;49.006;8.372;2024-02-15T13:27:25;18.70;99.90
14995;DHT22;7593;49.006;8.372;2024-02-15T13:29:52;18.80;99.90
14995;DHT22;7593;49.006;8.372;2024-02-15T13:32:20;18.90;99.90
14995;DHT22;7593;49.006;8.372;2024-02-15T13:34:48;18.80;99.90
14995;DHT22;7593;49.006;8.372;2024-02-15T13:37:18;18.90;99.90
14995;DHT22;7593;49.006;8.372;2024-02-15T13:39:47;18.90;99.90
14995;DHT22;7593;49.006;8.372;2024-02-15T13:42:14;19.00;99.90
14995;DHT22;7593;49.006;8.372;2024-02-15T13:44:42;19.00;99.90
14995;DHT22;7593;49.006;8.372;2024-02-15T13:47:09;19.10;99.90
14995;DHT22;7593;49.006;8.372;2024-02-15T13:49:37;19.20;99.90
14995;DHT22;7593;49.006;8.372;2024-02-15T13:52:05;19.20;99.90
14995;DHT22;7593;49.006;8.372;2024-02-15T13:54:32;19.20;99.90
14995;DHT22;7593;49.006;8.372;2024-02-15T13:57:01;19.30;99.90
14995;DHT22;7593;49.006;8.372;2024-02-15T13:59:28;19.40;99.90
14995;DHT22;7593;49.006;8.372;2024-02-15T14:01:55;19.60;99.50
14995;DHT22;7593;49.006;8.372;2024-02-15T14:04:22;19.50;99.10
14995;DHT22;7593;49.006;8.372;2024-02-15T14:06:49;19.60;99.30
14995;DHT22;7593;49.006;8.372;2024-02-15T14:09:15;19.60;99.40
14995;DHT22;7593;49.006;8.372;2024-02-15T14:11:43;19.50;99.40
14995;DHT22;7593;49.006;8.372;2024-02-15T14:14:11;19.50;99.60
14995;DHT22;7593;49.006;8.372;2024-02-15T14:16:38;19.60;99.90
14995;DHT22;7593;49.006;8.372;2024-02-15T14:19:06;19.60;99.30
14995;DHT22;7593;49.006;8.372;2024-02-15T14:21:34;19.50;99.30
14995;DHT22;7593;49.006;8.372;2024-02-15T14:24:06;19.40;99.00
14995;DHT22;7593;49.006;8.372;2024-02-15T14:26:34;19.30;99.30
14995;DHT22;7593;49.006;8.372;2024-02-15T14:29:02;19.20;99.30
14995;DHT22;7593;49.006;8.372;2024-02-15T14:31:30;19.10;99.40
14995;DHT22;7593;49.006;8.372;2024-02-15T14:34:14;19.10;99.20
14995;DHT22;7593;49.006;8.372;2024-02-15T14:36:43;19.20;99.20
14995;DHT22;7593;49.006;8.372;2024-02-15T14:39:11;19.30;99.20
14995;DHT22;7593;49.006;8.372;2024-02-15T14:41:39;19.30;99.30
14995;DHT22;7593;49.006;8.372;2024-02-15T14:44:06;19.20;98.90
14995;DHT22;7593;49.006;8.372;2024-02-15T14:46:35;19.30;98.90
14995;DHT22;7593;49.006;8.372;2024-02-15T14:49:02;19.30;99.20
14995;DHT22;7593;49.006;8.372;2024-02-15T14:51:30;19.30;99.10
14995;DHT22;7593;49.006;8.372;2024-02-15T14:53:57;19.30;99.10
14995;DHT22;7593;49.006;8.372;2024-02-15T14:56:25;19.10;98.70
14995;DHT22;7593;49.006;8.372;2024-02-15T14:58:51;19.00;98.80
14995;DHT22;7593;49.006;8.372;2024-02-15T15:01:18;18.90;99.10
14995;DHT22;7593;49.006;8.372;2024-02-15T15:03:54;18.80;99.30
14995;DHT22;7593;49.006;8.372;2024-02-15T15:06:24;18.80;99.50
14995;DHT22;7593;49.006;8.372;2024-02-15T15:09:09;18.80;99.50
14995;DHT22;7593;49.006;8.372;2024-02-15T15:11:54;18.80;99.60
14995;DHT22;7593;49.006;8.372;2024-02-15T15:14:38;18.80;99.50
14995;DHT22;7593;49.006;8.372;2024-02-15T15:17:06;18.60;99.70
14995;DHT22;7593;49.006;8.372;2024-02-15T15:19:34;18.50;99.80
14995;DHT22;7593;49.006;8.372;2024-02-15T15:22:02;18.40;99.80
14995;DHT22;7593;49.006;8.372;2024-02-15T15:24:30;18.30;99.90
14995;DHT22;7593;49.006;8.372;2024-02-15T15:26:58;18.20;99.90
14995;DHT22;7593;49.006;8.372;2024-02-15T15:29:25;18.10;99.90
14995;DHT22;7593;49.006;8.372;2024-02-15T15:31:52;18.10;99.90
14995;DHT22;7593;49.006;8.372;2024-02-15T15:34:19;18.00;99.90
14995;DHT22;7593;49.006;8.372;2024-02-15T15:36:47;18.00;99.90
14995;DHT22;7593;49.006;8.372;2024-02-15T15:39:15;18.00;99.90
14995;DHT22;7593;49.006;8.372;2024-02-15T15:41:43;17.90;99.90
14995;DHT22;7593;49.006;8.372;2024-02-15T15:44:10;17.90;99.90
14995;DHT22;7593;49.006;8.372;2024-02-15T15:46:37;17.80;99.90
14995;DHT22;7593;49.006;8.372;2024-02-15T15:49:04;17.80;99.90
14995;DHT22;7593;49.006;8.372;2024-02-15T15:51:31;17.70;99.90
14995;DHT22;7593;49.006;8.372;2024-02-15T15:54:00;17.70;99.90
14995;DHT22;7593;49.006;8.372;2024-02-15T15:56:27;17.60;99.90
14995;DHT22;7593;49.006;8.372;2024-02-15T15:58:54;17.50;99.90
14995;DHT22;7593;49.006;8.372;2024-02-15T16:01:23;17.40;99.90